Time;durP1;ratioP1;P1;durP2;ratioP2;P2;SDS_P1;SDS_P2;PMS_P1;PMS_P2;Temp;Humidity;BMP_temperature;BMP_pressure;BME280_temperature;BME280_humidity;BME280_pressure;Samples;Min_cycle;Max_cycle;Signal;HPM_P1;HPM_P2
2023/03/16 00:00:56;;;;;;;1.70;1.00;;;;;;;1.84;86.46;98242.13;105901;1251;75334;-23
2023/03/16 00:03:24;;;;;;;2.90;1.50;;;;;;;2.27;84.38;98252.84;105887;1257;75641;-23
2023/03/16 00:05:53;;;;;;;3.00;1.70;;;;;;;2.31;83.46;98252.89;105979;1251;74191;-25
2023/03/16 00:08:23;;;;;;;1.50;1.10;;;;;;;2.12;84.35;98254.20;105638;1251;61078;-25
2023/03/16 00:10:52;;;;;;;3.30;1.70;;;;;;;1.97;85.26;98248.45;105888;1256;61792;-23
2023/03/16 00:13:24;;;;;;;1.40;1.20;;;;;;;1.87;85.82;98243.68;105667;1254;75241;-23
2023/03/16 00:15:56;;;;;;;1.70;1.30;;;;;;;1.94;86.21;98242.75;105924;1255;76106;-23
2023/03/16 00:18:27;;;;;;;3.00;1.40;;;;;;;2.15;84.83;98240.33;105561;1251;74175;-23
2023/03/16 00:21:00;;;;;;;2.40;1.40;;;;;;;2.19;84.83;98241.31;105713;1252;61697;-23
2023/03/16 00:23:34;;;;;;;2.50;1.40;;;;;;;1.79;86.16;98239.19;105842;1253;61151;-23
2023/03/16 00:26:07;;;;;;;1.80;1.10;;;;;;;1.45;88.17;98238.86;105845;1251;75296;-23
2023/03/16 00:28:34;;;;;;;3.10;1.00;;;;;;;1.67;87.94;98238.48;105704;1251;75867;-23
2023/03/16 00:31:03;;;;;;;2.40;1.50;;;;;;;1.94;86.61;98236.76;105882;1251;74191;-23
2023/03/16 00:33:34;;;;;;;2.20;1.40;;;;;;;1.90;86.42;98232.02;105626;1259;61742;-23
2023/03/16 00:36:02;;;;;;;1.50;0.90;;;;;;;1.82;86.87;98227.69;105938;1256;61726;-23
2023/03/16 00:38:34;;;;;;;1.30;1.10;;;;;;;1.69;87.49;98227.09;105879;1251;75369;-23
2023/03/16 00:41:03;;;;;;;1.80;1.30;;;;;;;1.61;88.02;98221.92;105750;1251;74876;-23
2023/03/16 00:43:31;;;;;;;2.20;1.20;;;;;;;1.88;87.13;98222.77;105759;1251;74064;-23
2023/03/16 00:46:05;;;;;;;1.50;1.00;;;;;;;1.85;86.67;98222.75;105600;1260;61734;-24
2023/03/16 00:48:33;;;;;;;1.50;0.90;;;;;;;1.57;88.07;98226.23;105644;1252;62031;-23
2023/03/16 00:51:03;;;;;;;2.30;1.00;;;;;;;1.50;88.68;98225.82;105755;1251;74525;-23
2023/03/16 00:53:34;;;;;;;1.00;0.80;;;;;;;1.75;88.17;98229.33;105744;1259;75110;-23
2023/03/16 00:56:03;;;;;;;1.80;0.80;;;;;;;2.05;86.71;98231.15;105722;1251;74325;-23
2023/03/16 00:58:34;;;;;;;1.40;0.90;;;;;;;2.12;86.18;98233.64;105777;1251;61432;-24
2023/03/16 01:01:06;;;;;;;1.60;0.90;;;;;;;1.71;87.70;98227.52;105807;1257;61674;-24
2023/03/16 01:03:34;;;;;;;1.60;1.00;;;;;;;1.60;88.40;98224.02;105938;1253;75423;-25
2023/03/16 01:06:16;;;;;;;2.30;1.20;;;;;;;1.56;89.18;98221.34;105851;1251;75673;-23
2023/03/16 01:08:43;;;;;;;2.10;1.30;;;;;;;1.83;87.98;98213.33;105830;1253;74295;-23
2023/03/16 01:11:15;;;;;;;1.50;0.90;;;;;;;1.73;88.23;98215.40;105751;1254;61605;-23
2023/03/16 01:13:48;;;;;;;1.00;0.90;;;;;;;1.65;88.65;98216.54;105684;1259;62212;-23
2023/03/16 01:16:17;;;;;;;2.10;1.20;;;;;;;1.71;88.57;98215.36;105665;1251;75139;-23
2023/03/16 01:18:45;;;;;;;1.10;1.00;;;;;;;1.36;90.19;98220.61;105643;1252;74850;-23
2023/03/16 01:21:12;;;;;;;2.50;1.20;;;;;;;1.64;89.42;98220.34;105689;1254;74385;-23
2023/03/16 01:23:40;;;;;;;1.60;1.10;;;;;;;1.60;89.07;98219.91;105646;1253;61188;-23
2023/03/16 01:26:07;;;;;;;1.90;1.00;;;;;;;1.25;90.26;98216.44;105765;1257;61737;-23
2023/03/16 01:28:34;;;;;;;4.20;0.90;;;;;;;1.30;90.93;98223.15;105886;1251;75325;-23
2023/03/16 01:31:05;;;;;;;1.70;1.00;;;;;;;1.48;90.11;98224.17;105712;1255;75940;-23
2023/03/16 01:33:34;;;;;;;3.00;1.10;;;;;;;1.57;89.55;98224.38;105300;1260;74077;-23
2023/03/16 01:36:07;;;;;;;1.30;1.20;;;;;;;1.53;89.21;98226.99;105654;1251;61633;-24
2023/03/16 01:38:44;;;;;;;1.10;0.90;;;;;;;1.39;89.24;98230.16;105619;1257;61471;-23
2023/03/16 01:41:12;;;;;;;1.10;0.90;;;;;;;1.19;89.92;98233.48;105928;1251;75214;-23
2023/03/16 01:43:40;;;;;;;1.20;1.00;;;;;;;1.37;89.36;98240.05;105847;1256;75877;-23
2023/03/16 01:46:16;;;;;;;1.80;0.90;;;;;;;1.61;88.18;98238.70;105737;1251;74109;-23
2023/03/16 01:49:01;;;;;;;2.20;1.00;;;;;;;1.45;88.40;98237.21;105722;1258;61769;-23
2023/03/16 01:51:36;;;;;;;1.40;1.20;;;;;;;1.30;88.77;98237.84;105759;1256;61279;-23
2023/03/16 01:54:25;;;;;;;2.60;0.90;;;;;;;1.21;89.64;98238.36;105733;1251;75112;-23
2023/03/16 01:57:04;;;;;;;1.30;0.90;;;;;;;1.55;88.07;98242.76;105828;1254;75836;-24
2023/03/16 01:59:57;;;;;;;1.10;0.70;;;;;;;1.38;88.20;98244.23;105708;1252;73192;-23
2023/03/16 02:02:26;;;;;;;1.20;0.90;;;;;;;1.37;88.12;98251.66;105723;1256;61277;-23
2023/03/16 02:05:02;;;;;;;1.20;0.80;;;;;;;1.18;88.97;98259.05;105796;1256;61767;-23
2023/03/16 02:07:36;;;;;;;1.20;0.80;;;;;;;1.40;88.71;98268.75;105839;1253;75181;-23
2023/03/16 02:10:04;;;;;;;0.80;0.80;;;;;;;1.55;87.67;98274.25;105710;1259;75697;-23
2023/03/16 02:12:35;;;;;;;4.70;1.20;;;;;;;1.23;88.79;98276.91;105554;1254;74279;-24
2023/03/16 02:15:03;;;;;;;1.20;0.90;;;;;;;1.12;89.68;98284.35;105600;1254;61139;-25
2023/03/16 02:17:31;;;;;;;0.70;0.70;;;;;;;1.26;89.70;98291.11;105647;1255;61802;-25
2023/03/16 02:20:30;;;;;;;0.80;0.80;;;;;;;1.43;88.78;98295.61;105710;1254;75233;-25
2023/03/16 02:22:57;;;;;;;0.90;0.70;;;;;;;1.58;87.97;98294.13;105952;1257;75865;-25
2023/03/16 02:25:50;;;;;;;1.90;1.30;;;;;;;1.47;87.85;98288.20;105706;1254;74027;-25
2023/03/16 02:28:46;;;;;;;2.40;1.10;;;;;;;1.15;89.23;98287.61;105706;1251;61064;-25
2023/03/16 02:31:17;;;;;;;0.70;0.70;;;;;;;1.22;89.43;98291.33;105713;1254;62631;-25
2023/03/16 02:33:45;;;;;;;0.80;0.70;;;;;;;1.40;88.63;98291.67;105786;1254;75761;-25
2023/03/16 02:36:16;;;;;;;1.20;0.80;;;;;;;1.30;88.35;98293.27;105797;1254;75548;-25
2023/03/16 02:38:43;;;;;;;1.00;0.60;;;;;;;1.13;89.65;98292.98;105686;1259;74257;-26
2023/03/16 02:41:11;;;;;;;0.80;0.80;;;;;;;1.22;90.22;98292.88;105765;1254;61320;-25
2023/03/16 02:43:43;;;;;;;0.60;0.60;;;;;;;1.21;90.03;98292.39;105931;1255;61859;-25
2023/03/16 02:46:25;;;;;;;0.90;0.60;;;;;;;1.39;89.20;98291.08;105735;1251;74282;-25
2023/03/16 02:49:09;;;;;;;0.50;0.40;;;;;;;1.01;89.65;98293.80;105732;1251;75785;-26
2023/03/16 02:51:37;;;;;;;1.00;0.70;;;;;;;1.06;89.44;98295.77;105458;1254;74153;-25
2023/03/16 02:54:04;;;;;;;0.60;0.40;;;;;;;0.59;91.85;98298.09;105817;1251;61187;-25
2023/03/16 02:56:36;;;;;;;1.60;0.70;;;;;;;0.65;92.56;98296.24;105799;1251;61734;-26
2023/03/16 02:59:03;;;;;;;1.40;0.80;;;;;;;0.83;91.55;98298.57;105746;1251;75397;-25
2023/03/16 03:01:33;;;;;;;1.30;0.90;;;;;;;0.80;91.37;98302.44;105950;1256;74745;-25
2023/03/16 03:04:02;;;;;;;1.70;1.10;;;;;;;0.52;92.33;98302.35;105915;1251;75030;-25
2023/03/16 03:06:31;;;;;;;2.40;1.10;;;;;;;0.51;93.28;98305.48;105598;1251;63431;-25
2023/03/16 03:09:00;;;;;;;1.70;0.80;;;;;;;0.60;93.03;98308.46;105623;1258;61871;-25
2023/03/16 03:11:28;;;;;;;1.00;0.70;;;;;;;0.67;92.92;98308.59;105975;1251;75329;-25
2023/03/16 03:13:56;;;;;;;0.60;0.50;;;;;;;0.66;92.43;98313.23;105520;1254;75795;-25
2023/03/16 03:16:25;;;;;;;0.90;0.70;;;;;;;0.35;93.82;98318.27;105668;1255;74223;-25
2023/03/16 03:18:53;;;;;;;1.50;0.80;;;;;;;0.45;93.98;98322.55;105834;1251;61500;-24
2023/03/16 03:21:23;;;;;;;1.40;0.60;;;;;;;0.59;93.29;98327.48;105598;1257;61557;-23
2023/03/16 03:23:50;;;;;;;1.60;1.00;;;;;;;0.65;92.54;98331.61;105715;1253;75462;-23
2023/03/16 03:26:18;;;;;;;1.60;0.80;;;;;;;0.36;93.39;98335.47;105689;1254;75800;-23
2023/03/16 03:28:48;;;;;;;1.50;1.00;;;;;;;0.27;94.46;98342.59;105548;1254;74370;-23
2023/03/16 03:31:19;;;;;;;1.40;0.80;;;;;;;0.42;93.87;98343.38;105688;1251;62575;-23
2023/03/16 03:33:46;;;;;;;0.60;0.60;;;;;;;0.77;92.16;98344.83;105706;1259;61721;-23
2023/03/16 03:36:14;;;;;;;0.60;0.60;;;;;;;0.72;91.63;98350.20;105555;1254;75160;-23
2023/03/16 03:38:43;;;;;;;1.90;0.90;;;;;;;0.67;91.14;98355.58;105919;1251;75393;-23
2023/03/16 03:41:12;;;;;;;1.50;0.80;;;;;;;0.31;92.98;98352.44;105909;1251;74136;-23
2023/03/16 03:43:41;;;;;;;1.90;1.10;;;;;;;0.40;93.58;98354.90;105805;1251;62508;-22
2023/03/16 03:46:17;;;;;;;2.80;0.90;;;;;;;0.72;92.45;98357.87;105743;1257;61556;-22
2023/03/16 03:48:45;;;;;;;1.20;0.70;;;;;;;0.67;91.57;98359.17;105888;1251;75442;-22
2023/03/16 03:51:12;;;;;;;1.80;1.00;;;;;;;0.58;91.35;98359.30;105662;1251;75830;-23
2023/03/16 03:53:45;;;;;;;0.60;0.60;;;;;;;0.36;92.64;98363.65;105817;1254;74357;-23
2023/03/16 03:56:31;;;;;;;1.20;1.00;;;;;;;0.26;93.71;98363.98;105922;1251;62634;-22
2023/03/16 03:58:58;;;;;;;1.10;0.60;;;;;;;0.57;92.74;98363.60;105786;1257;61736;-23
2023/03/16 04:01:40;;;;;;;1.20;0.70;;;;;;;0.60;92.05;98362.97;105806;1254;75252;-22
2023/03/16 04:04:08;;;;;;;0.60;0.50;;;;;;;0.41;92.35;98361.70;105990;1254;75744;-23
2023/03/16 04:06:35;;;;;;;0.50;0.50;;;;;;;0.26;93.33;98367.70;105870;1251;73937;-23
2023/03/16 04:09:02;;;;;;;1.00;0.50;;;;;;;0.29;93.96;98375.77;105685;1258;62381;-23
2023/03/16 04:11:37;;;;;;;1.00;0.50;;;;;;;0.66;92.70;98380.59;105800;1257;61644;-23
2023/03/16 04:14:05;;;;;;;0.70;0.60;;;;;;;0.75;91.16;98394.48;105983;1251;75360;-23
2023/03/16 04:16:32;;;;;;;0.60;0.40;;;;;;;0.53;91.64;98399.70;105704;1251;75680;-23
2023/03/16 04:19:03;;;;;;;0.50;0.50;;;;;;;0.34;92.63;98403.53;105852;1251;74212;-23
2023/03/16 04:21:31;;;;;;;0.40;0.40;;;;;;;0.27;93.85;98404.52;105954;1257;62820;-23
2023/03/16 04:24:02;;;;;;;1.10;0.50;;;;;;;0.67;92.61;98404.42;105770;1256;61862;-22
2023/03/16 04:26:33;;;;;;;0.90;0.80;;;;;;;0.61;91.73;98405.08;105765;1251;73700;-23
2023/03/16 04:29:02;;;;;;;0.40;0.40;;;;;;;0.66;91.44;98402.63;105900;1257;75699;-23
2023/03/16 04:31:35;;;;;;;0.70;0.60;;;;;;;0.20;93.32;98403.17;105931;1251;74021;-23
2023/03/16 04:34:02;;;;;;;0.50;0.50;;;;;;;0.04;94.93;98398.85;105761;1254;62514;-23
2023/03/16 04:36:31;;;;;;;0.50;0.50;;;;;;;0.57;93.21;98403.76;105689;1256;61732;-23
2023/03/16 04:39:01;;;;;;;0.40;0.40;;;;;;;0.43;93.03;98404.12;105683;1258;75331;-23
2023/03/16 04:41:28;;;;;;;1.10;0.70;;;;;;;0.31;93.73;98404.88;105656;1256;75837;-23
2023/03/16 04:44:05;;;;;;;0.30;0.30;;;;;;;0.12;94.62;98401.00;105930;1256;74250;-23
2023/03/16 04:46:34;;;;;;;1.50;1.10;;;;;;;0.22;94.91;98407.20;105953;1251;60984;-23
2023/03/16 04:49:03;;;;;;;2.60;1.20;;;;;;;0.39;94.20;98415.58;105710;1251;62279;-23
2023/03/16 04:51:31;;;;;;;2.20;1.00;;;;;;;0.61;92.56;98422.83;105748;1254;75318;-23
2023/03/16 04:54:04;;;;;;;1.50;1.10;;;;;;;0.36;92.92;98424.95;105978;1256;75891;-23
2023/03/16 04:56:36;;;;;;;1.10;0.90;;;;;;;0.11;94.39;98428.05;105960;1251;73160;-23
2023/03/16 04:59:07;;;;;;;0.60;0.60;;;;;;;0.35;93.87;98431.30;105953;1251;61186;-23
2023/03/16 05:02:02;;;;;;;1.60;1.10;;;;;;;0.46;93.35;98439.33;106019;1255;62216;-23
2023/03/16 05:04:30;;;;;;;1.00;0.50;;;;;;;0.54;92.64;98448.16;105850;1251;75426;-22
2023/03/16 05:06:59;;;;;;;4.80;0.90;;;;;;;0.42;92.42;98446.00;106002;1255;74815;-23
2023/03/16 05:09:31;;;;;;;1.30;0.70;;;;;;;0.33;93.54;98443.53;105955;1251;74072;-23
2023/03/16 05:11:58;;;;;;;1.20;0.60;;;;;;;0.33;93.30;98443.03;105983;1257;61239;-23
2023/03/16 05:14:34;;;;;;;1.30;0.80;;;;;;;0.24;93.79;98434.23;105770;1257;61634;-23
2023/03/16 05:17:23;;;;;;;3.30;1.10;;;;;;;0.19;94.30;98441.64;104468;1257;2015694;-23
2023/03/16 05:19:50;;;;;;;1.50;1.10;;;;;;;0.13;94.71;98449.27;105978;1251;75900;-23
2023/03/16 05:22:22;;;;;;;1.30;1.10;;;;;;;0.24;94.73;98450.98;105871;1251;73768;-23
2023/03/16 05:25:13;;;;;;;1.30;0.80;;;;;;;0.51;93.50;98460.45;105694;1251;61812;-24
2023/03/16 05:27:46;;;;;;;1.10;1.00;;;;;;;0.52;92.61;98469.92;105690;1257;61829;-23
2023/03/16 05:30:17;;;;;;;2.90;2.10;;;;;;;0.32;93.75;98475.36;105879;1251;75349;-22
2023/03/16 05:32:45;;;;;;;1.80;1.00;;;;;;;0.27;94.19;98476.10;105965;1251;75786;-23
2023/03/16 05:35:21;;;;;;;1.60;0.90;;;;;;;0.58;93.07;98475.64;105872;1251;74421;-23
2023/03/16 05:37:51;;;;;;;2.80;1.30;;;;;;;0.49;92.43;98471.42;105832;1256;61903;-23
2023/03/16 05:40:21;;;;;;;1.90;1.00;;;;;;;0.34;92.98;98471.65;105771;1251;61048;-23
2023/03/16 05:42:57;;;;;;;1.10;1.00;;;;;;;0.13;94.42;98469.24;105831;1251;75272;-23
2023/03/16 05:45:27;;;;;;;3.30;2.20;;;;;;;0.35;94.61;98469.56;105713;1258;75805;-23
2023/03/16 05:48:14;;;;;;;3.10;1.20;;;;;;;0.55;93.20;98468.92;106024;1251;74290;-23
2023/03/16 05:50:46;;;;;;;3.20;1.90;;;;;;;0.66;91.96;98475.71;105850;1251;61869;-22
2023/03/16 05:53:14;;;;;;;2.40;1.40;;;;;;;0.29;93.56;98479.27;105699;1251;61112;-22
2023/03/16 05:55:42;;;;;;;1.90;1.00;;;;;;;0.11;95.17;98476.49;105607;1254;74232;-22
2023/03/16 05:58:11;;;;;;;2.40;1.60;;;;;;;0.49;94.41;98476.89;105915;1251;75836;-22
2023/03/16 06:00:40;;;;;;;1.40;1.00;;;;;;;0.75;92.48;98476.85;105947;1251;72874;-23
2023/03/16 06:03:16;;;;;;;3.00;1.70;;;;;;;0.57;92.50;98477.23;105796;1251;61636;-22
2023/03/16 06:05:45;;;;;;;1.10;0.90;;;;;;;0.38;93.51;98476.58;105638;1257;61215;-22
2023/03/16 06:08:12;;;;;;;3.30;1.60;;;;;;;0.40;94.75;98477.33;105588;1255;75123;-22
2023/03/16 06:10:48;;;;;;;2.80;1.70;;;;;;;0.45;94.13;98477.61;105652;1254;75747;-23
2023/03/16 06:13:18;;;;;;;5.90;2.60;;;;;;;0.67;93.20;98480.48;105719;1256;74248;-23
2023/03/16 06:15:45;;;;;;;4.10;1.90;;;;;;;0.45;93.79;98489.55;105518;1254;61215;-23
2023/03/16 06:18:13;;;;;;;4.20;2.30;;;;;;;0.48;94.30;98499.86;105887;1257;61729;-22
2023/03/16 06:20:41;;;;;;;3.10;1.70;;;;;;;0.63;94.16;98503.38;105941;1257;75381;-23
2023/03/16 06:23:08;;;;;;;5.50;2.70;;;;;;;0.81;93.07;98501.48;105797;1256;75765;-23
2023/03/16 06:25:39;;;;;;;4.70;3.00;;;;;;;0.69;92.57;98500.85;105497;1254;74219;-23
2023/03/16 06:28:08;;;;;;;1.20;1.00;;;;;;;0.62;93.34;98500.38;105619;1256;61272;-23
2023/03/16 06:30:38;;;;;;;1.50;1.00;;;;;;;0.64;93.08;98514.08;105799;1255;62393;-23
2023/03/16 06:33:06;;;;;;;1.40;0.90;;;;;;;0.69;92.89;98520.00;105725;1258;73154;-22
2023/03/16 06:35:34;;;;;;;2.50;0.90;;;;;;;0.82;92.45;98522.30;105850;1251;75821;-23
2023/03/16 06:38:11;;;;;;;2.10;1.20;;;;;;;0.89;92.16;98523.29;105580;1251;74047;-23
2023/03/16 06:40:52;;;;;;;1.30;1.00;;;;;;;1.01;91.80;98525.10;105769;1251;61054;-23
2023/03/16 06:43:21;;;;;;;2.50;0.80;;;;;;;0.86;91.81;98532.33;105554;1259;61803;-23
2023/03/16 06:45:49;;;;;;;1.60;0.90;;;;;;;0.73;92.38;98533.85;105697;1251;75368;-23
2023/03/16 06:48:17;;;;;;;2.80;1.80;;;;;;;1.05;92.20;98535.31;105792;1251;75827;-23
2023/03/16 06:50:45;;;;;;;2.30;1.30;;;;;;;1.09;91.60;98539.37;105677;1251;74222;-23
2023/03/16 06:53:13;;;;;;;4.80;2.20;;;;;;;0.86;92.56;98534.55;105803;1251;61099;-23
2023/03/16 06:55:41;;;;;;;2.60;1.20;;;;;;;0.74;93.04;98531.35;105904;1256;61795;-23
2023/03/16 06:58:08;;;;;;;2.00;1.20;;;;;;;0.90;92.71;98527.35;105866;1251;75597;-23
2023/03/16 07:00:35;;;;;;;0.70;0.70;;;;;;;1.10;92.03;98528.92;105651;1257;75707;-23
2023/03/16 07:03:03;;;;;;;2.00;1.10;;;;;;;1.21;90.83;98537.61;105822;1256;74182;-25
2023/03/16 07:05:31;;;;;;;1.30;1.00;;;;;;;0.98;91.78;98539.92;105888;1251;61007;-23
2023/03/16 07:08:01;;;;;;;3.10;1.70;;;;;;;0.92;92.10;98548.11;105346;1260;61774;-23
2023/03/16 07:10:30;;;;;;;2.30;1.20;;;;;;;1.22;92.01;98551.56;105817;1251;75400;-23
2023/03/16 07:12:57;;;;;;;0.60;0.60;;;;;;;1.26;90.59;98552.92;105798;1257;75959;-23
2023/03/16 07:15:25;;;;;;;1.20;0.90;;;;;;;1.24;90.23;98549.23;105847;1251;73957;-23
2023/03/16 07:17:55;;;;;;;0.90;0.70;;;;;;;0.91;91.23;98560.83;105605;1254;61128;-23
2023/03/16 07:20:22;;;;;;;3.30;0.80;;;;;;;1.08;91.28;98560.98;105829;1251;61741;-23
2023/03/16 07:22:51;;;;;;;0.70;0.70;;;;;;;1.25;90.06;98566.80;105583;1251;75207;-23
2023/03/16 07:25:18;;;;;;;2.70;1.00;;;;;;;1.15;90.26;98568.85;105946;1251;75893;-23
2023/03/16 07:27:49;;;;;;;1.20;1.00;;;;;;;1.15;90.68;98567.98;105849;1254;74196;-23
2023/03/16 07:30:24;;;;;;;2.00;1.40;;;;;;;1.10;91.35;98568.95;105816;1254;61699;-23
2023/03/16 07:32:51;;;;;;;3.20;2.60;;;;;;;1.29;90.26;98566.63;105676;1258;61882;-23
2023/03/16 07:35:21;;;;;;;1.90;1.50;;;;;;;1.43;89.30;98571.02;105784;1257;74560;-23
2023/03/16 07:37:49;;;;;;;1.70;1.20;;;;;;;1.26;89.08;98563.00;105829;1257;73897;-23
2023/03/16 07:40:18;;;;;;;3.70;2.70;;;;;;;1.26;90.42;98567.78;105860;1254;74195;-23
2023/03/16 07:42:46;;;;;;;2.50;2.00;;;;;;;1.37;91.05;98571.52;105972;1251;62633;-23
2023/03/16 07:45:16;;;;;;;7.20;3.50;;;;;;;1.42;88.96;98571.77;105850;1253;61045;-23
2023/03/16 07:47:44;;;;;;;3.40;2.30;;;;;;;1.58;88.89;98578.13;105943;1250;75497;-23
2023/03/16 07:50:21;;;;;;;4.40;2.20;;;;;;;1.38;88.65;98574.86;105694;1256;75746;-23
2023/03/16 07:52:51;;;;;;;4.20;3.20;;;;;;;1.24;89.47;98579.85;105689;1251;74015;-23
2023/03/16 07:55:19;;;;;;;3.10;2.30;;;;;;;1.28;89.65;98587.52;105828;1251;62723;-23
2023/03/16 07:57:47;;;;;;;3.60;2.50;;;;;;;1.58;88.86;98588.91;105864;1251;61226;-23
2023/03/16 08:00:22;;;;;;;3.20;2.40;;;;;;;1.67;88.08;98596.16;105714;1251;75255;-23
2023/03/16 08:02:51;;;;;;;4.40;2.80;;;;;;;1.61;88.12;98594.38;105738;1258;74740;-23
2023/03/16 08:05:18;;;;;;;3.90;2.50;;;;;;;1.54;88.63;98588.94;105997;1257;73267;-23
2023/03/16 08:07:49;;;;;;;5.00;2.10;;;;;;;1.47;89.98;98584.54;105940;1256;62813;-23
2023/03/16 08:10:20;;;;;;;2.20;2.00;;;;;;;1.66;88.79;98588.17;105586;1251;60998;-23
2023/03/16 08:12:59;;;;;;;2.80;2.40;;;;;;;1.69;88.48;98589.88;105840;1251;75239;-23
2023/03/16 08:15:28;;;;;;;2.60;1.80;;;;;;;1.69;88.10;98593.33;105949;1256;75923;-23
2023/03/16 08:18:03;;;;;;;2.30;1.70;;;;;;;1.55;87.89;98597.80;105977;1251;74019;-23
2023/03/16 08:20:33;;;;;;;4.90;3.10;;;;;;;1.49;89.34;98602.20;105603;1254;61175;-23
2023/03/16 08:23:01;;;;;;;2.80;2.10;;;;;;;1.74;88.90;98607.11;105648;1257;61951;-23
2023/03/16 08:25:34;;;;;;;4.00;2.10;;;;;;;1.88;87.43;98608.44;105613;1251;75168;-23
2023/03/16 08:28:09;;;;;;;3.30;2.70;;;;;;;1.83;87.12;98603.20;105850;1256;75890;-24
2023/03/16 08:30:43;;;;;;;5.00;3.10;;;;;;;1.88;87.25;98601.95;105912;1253;74350;-24
2023/03/16 08:33:42;;;;;;;3.00;1.90;;;;;;;1.48;87.88;98610.64;105459;1260;61101;-24
2023/03/16 08:36:12;;;;;;;2.90;2.20;;;;;;;1.52;87.74;98614.20;105662;1251;61213;-23
2023/03/16 08:38:41;;;;;;;2.00;1.30;;;;;;;1.65;86.33;98607.56;105569;1259;74167;-23
2023/03/16 08:41:12;;;;;;;1.90;1.70;;;;;;;1.63;87.59;98613.64;105733;1257;74911;-23
2023/03/16 08:43:41;;;;;;;3.20;2.20;;;;;;;1.57;87.43;98622.70;105813;1251;73367;-23
2023/03/16 08:46:10;;;;;;;2.40;1.50;;;;;;;1.55;88.37;98633.23;105678;1256;61198;-23
2023/03/16 08:48:44;;;;;;;1.20;1.00;;;;;;;1.74;87.86;98645.05;105818;1257;61774;-23
2023/03/16 08:51:12;;;;;;;2.60;1.70;;;;;;;1.75;86.26;98641.59;105720;1251;75430;-23
2023/03/16 08:53:40;;;;;;;0.80;0.70;;;;;;;1.71;87.26;98643.38;105750;1257;75708;-22
2023/03/16 08:56:08;;;;;;;1.60;1.00;;;;;;;1.75;87.57;98645.39;105853;1251;74199;-23
2023/03/16 08:58:36;;;;;;;1.70;1.30;;;;;;;1.55;88.11;98652.35;105604;1259;61159;-23
2023/03/16 09:01:04;;;;;;;2.50;1.20;;;;;;;1.67;88.61;98664.61;105939;1257;61803;-23
2023/03/16 09:03:34;;;;;;;1.20;0.80;;;;;;;1.98;87.48;98675.48;105847;1258;75257;-23
2023/03/16 09:06:02;;;;;;;1.10;0.70;;;;;;;1.80;86.86;98672.32;105916;1257;75832;-24
2023/03/16 09:08:30;;;;;;;1.50;1.00;;;;;;;1.64;87.99;98678.98;105903;1260;72141;-23
2023/03/16 09:11:04;;;;;;;1.50;1.10;;;;;;;1.48;88.18;98680.61;105716;1257;61138;-23
2023/03/16 09:13:33;;;;;;;2.00;1.00;;;;;;;1.71;87.83;98683.41;105614;1257;61698;-23
2023/03/16 09:16:01;;;;;;;2.20;1.40;;;;;;;1.77;86.54;98689.27;105757;1252;74480;-23
2023/03/16 09:18:31;;;;;;;2.00;1.20;;;;;;;1.87;86.22;98691.97;105967;1257;74819;-24
2023/03/16 09:21:00;;;;;;;3.00;1.30;;;;;;;1.56;86.92;98697.17;105719;1259;74689;-23
2023/03/16 09:23:28;;;;;;;1.50;1.00;;;;;;;1.63;88.22;98697.83;105740;1255;61601;-23
2023/03/16 09:25:59;;;;;;;2.20;1.10;;;;;;;1.77;87.77;98693.72;105780;1252;61762;-23
2023/03/16 09:28:27;;;;;;;2.10;1.30;;;;;;;1.81;86.92;98686.15;105884;1260;74297;-23
2023/03/16 09:30:57;;;;;;;2.30;1.30;;;;;;;1.72;87.18;98683.84;105887;1257;75867;-23
2023/03/16 09:33:25;;;;;;;1.40;1.00;;;;;;;1.70;87.88;98691.65;105465;1251;73944;-23
2023/03/16 09:35:56;;;;;;;3.30;1.40;;;;;;;1.82;87.56;98692.79;105842;1251;61071;-23
2023/03/16 09:38:25;;;;;;;2.30;1.20;;;;;;;2.23;86.58;98697.02;105353;1261;61985;-23
2023/03/16 09:41:06;;;;;;;1.10;0.70;;;;;;;2.45;83.26;98700.83;105650;1254;75243;-23
2023/03/16 09:44:10;;;;;;;2.50;1.20;;;;;;;2.30;83.36;98702.28;105749;1260;75755;-23
2023/03/16 09:46:43;;;;;;;2.60;1.10;;;;;;;1.95;83.60;98694.36;105425;1255;73640;-23
2023/03/16 09:49:12;;;;;;;1.20;1.00;;;;;;;1.84;84.85;98701.58;105717;1255;61235;-23
2023/03/16 09:52:03;;;;;;;1.40;1.00;;;;;;;1.84;86.09;98707.39;105726;1259;62264;-23
2023/03/16 09:54:41;;;;;;;1.10;0.60;;;;;;;2.09;84.74;98709.20;105868;1256;75344;-24
2023/03/16 09:57:23;;;;;;;1.40;1.00;;;;;;;2.22;84.35;98712.16;105722;1254;75469;-23
2023/03/16 09:59:53;;;;;;;2.10;1.40;;;;;;;1.87;85.18;98711.88;105605;1254;74196;-24
2023/03/16 10:02:45;;;;;;;2.80;1.50;;;;;;;1.91;86.14;98722.45;105800;1251;61049;-24
2023/03/16 10:05:15;;;;;;;2.10;1.30;;;;;;;2.18;85.55;98715.95;105562;1259;61705;-23
2023/03/16 10:08:09;;;;;;;1.80;1.40;;;;;;;2.49;84.93;98722.34;105669;1259;74160;-23
2023/03/16 10:10:57;;;;;;;1.50;1.00;;;;;;;2.32;84.22;98717.98;105907;1256;75811;-25
2023/03/16 10:13:48;;;;;;;2.50;1.20;;;;;;;2.02;85.09;98720.83;105880;1254;74140;-24
2023/03/16 10:17:01;;;;;;;2.80;1.70;;;;;;;1.98;86.37;98722.58;105869;1254;61265;-23
2023/03/16 10:19:40;;;;;;;3.70;2.00;;;;;;;2.01;85.82;98722.13;105708;1254;61058;-24
2023/03/16 10:22:25;;;;;;;1.70;1.00;;;;;;;2.36;84.89;98721.02;105903;1257;75180;-24
2023/03/16 10:25:30;;;;;;;2.30;1.40;;;;;;;2.41;84.43;98721.58;105921;1256;75922;-24
2023/03/16 10:27:57;;;;;;;1.10;0.80;;;;;;;2.16;84.52;98712.77;105816;1251;74179;-25
2023/03/16 10:30:31;;;;;;;1.90;1.20;;;;;;;2.12;85.11;98712.81;105897;1251;61099;-25
2023/03/16 10:33:01;;;;;;;1.80;1.10;;;;;;;2.18;84.38;98714.58;105833;1251;61292;-25
2023/03/16 10:35:35;;;;;;;2.30;1.20;;;;;;;2.29;83.68;98721.34;105577;1257;73478;-24
2023/03/16 10:38:02;;;;;;;1.70;1.20;;;;;;;2.25;84.05;98723.45;105851;1256;75834;-24
2023/03/16 10:40:31;;;;;;;1.90;1.10;;;;;;;2.28;83.26;98726.57;105860;1256;74079;-24
2023/03/16 10:43:12;;;;;;;1.10;0.90;;;;;;;2.38;83.80;98729.96;105612;1259;61767;-24
2023/03/16 10:45:41;;;;;;;1.10;1.00;;;;;;;2.68;82.64;98732.15;105636;1252;61122;-25
2023/03/16 10:48:13;;;;;;;1.60;0.90;;;;;;;2.66;82.03;98732.95;105741;1253;75423;-26
2023/03/16 10:50:42;;;;;;;2.90;1.50;;;;;;;2.93;81.81;98739.39;105872;1256;75828;-25
2023/03/16 10:53:22;;;;;;;1.10;1.00;;;;;;;2.91;81.45;98737.97;105762;1254;74043;-25
2023/03/16 10:55:59;;;;;;;1.50;1.10;;;;;;;2.53;80.04;98741.04;105876;1257;61243;-25
2023/03/16 10:58:31;;;;;;;1.40;0.90;;;;;;;2.28;81.88;98737.16;105686;1260;61887;-26
2023/03/16 11:01:00;;;;;;;1.10;0.80;;;;;;;2.59;82.14;98748.23;105698;1259;75326;-26
2023/03/16 11:03:38;;;;;;;1.90;0.80;;;;;;;2.54;81.69;98742.33;105876;1256;75915;-25
2023/03/16 11:06:06;;;;;;;1.50;0.90;;;;;;;2.34;82.87;98745.25;105689;1260;74209;-26
2023/03/16 11:08:36;;;;;;;4.30;3.40;;;;;;;2.37;83.86;98745.60;105727;1257;61281;-25
2023/03/16 11:11:13;;;;;;;1.90;0.90;;;;;;;2.53;84.07;98748.56;105622;1260;61744;-26
2023/03/16 11:13:45;;;;;;;1.20;0.90;;;;;;;3.00;82.42;98748.08;105706;1260;75516;-25
2023/03/16 11:16:58;;;;;;;1.20;0.90;;;;;;;3.03;79.91;98750.35;105746;1260;75791;-25
2023/03/16 11:19:30;;;;;;;2.40;1.00;;;;;;;2.72;80.03;98744.95;105242;1265;72917;-25
2023/03/16 11:22:10;;;;;;;2.40;1.20;;;;;;;2.49;82.75;98746.72;105060;1263;61174;-25
2023/03/16 11:25:05;;;;;;;1.40;1.00;;;;;;;2.38;82.64;98745.23;105632;1252;61094;-25
2023/03/16 11:27:51;;;;;;;3.50;1.10;;;;;;;2.61;81.93;98749.84;105603;1265;75434;-25
2023/03/16 11:30:29;;;;;;;1.50;0.90;;;;;;;2.86;80.75;98748.33;105746;1254;74629;-24
2023/03/16 11:32:59;;;;;;;0.90;0.80;;;;;;;2.94;80.06;98749.80;105889;1254;74212;-24
2023/03/16 11:35:35;;;;;;;1.60;1.20;;;;;;;2.91;80.16;98755.09;105843;1257;61141;-24
2023/03/16 11:38:14;;;;;;;2.30;1.00;;;;;;;2.90;79.14;98758.23;105991;1258;61852;-25
2023/03/16 11:40:44;;;;;;;1.00;0.60;;;;;;;2.69;80.17;98773.09;105614;1259;75233;-24
2023/03/16 11:43:38;;;;;;;2.70;1.10;;;;;;;2.56;79.16;98766.58;105708;1257;75795;-24
2023/03/16 11:46:19;;;;;;;0.60;0.50;;;;;;;2.57;79.57;98769.73;105776;1257;74038;-24
2023/03/16 11:49:24;;;;;;;1.60;1.10;;;;;;;2.49;81.76;98777.20;105755;1251;61891;-24
2023/03/16 11:52:11;;;;;;;2.70;1.50;;;;;;;2.61;82.47;98780.71;105852;1256;61704;-24
2023/03/16 11:54:57;;;;;;;1.20;0.70;;;;;;;2.53;82.52;98786.61;105917;1259;75353;-23
2023/03/16 11:57:27;;;;;;;1.30;0.90;;;;;;;2.76;81.74;98790.34;105924;1257;75804;-23
2023/03/16 12:00:19;;;;;;;1.30;1.00;;;;;;;2.86;81.01;98787.23;105860;1260;74225;-24